Wilsonville, Nebraska
Current Conditions -  °F | °C
As of 1:53 PM on Saturday 20 Dec 2014 (Local Time) from KMCK Reporting Station
Clear Clear  
Wind Chill: 41°   Ceiling: Unl
Heat Index: 44°   Visibility: 10mi
Dew Point: 30°   Wind: 6mph
Humidity: 58%   Direction: 200°SSW
Pressure: 29.97"   Gusts: NA
Location:  40.11°N, 100.11°W
Report Text: KMCK 201953Z AUTO 20005KT 10SM CLR 07/M01 A2997 RMK AO2 SLP167 T00671011
Loading
Personal Weather Stations






























Interactive Weather Map New forecast layout! Learn more

10-Day Weather Forecast

Advertisements
Track Severe Weather on mobile